sensor_id;sensor_type;location;lat;lon;timestamp;pressure;altitude;pressure_sealevel;temperature;humidity
77112;BME280;66064;50.226;14.344;2023-07-20T00:01:24;99008.53;;;18.34;72.11
77112;BME280;66064;50.226;14.344;2023-07-20T00:03:50;99002.16;;;18.37;72.35
77112;BME280;66064;50.226;14.344;2023-07-20T00:06:29;98992.28;;;18.36;72.75
77112;BME280;66064;50.226;14.344;2023-07-20T00:08:55;99001.38;;;18.33;73.16
77112;BME280;66064;50.226;14.344;2023-07-20T00:11:26;99004.19;;;18.29;72.93
77112;BME280;66064;50.226;14.344;2023-07-20T00:13:53;98992.13;;;18.12;73.78
77112;BME280;66064;50.226;14.344;2023-07-20T00:16:19;98998.78;;;17.99;74.38
77112;BME280;66064;50.226;14.344;2023-07-20T00:18:45;99014.22;;;17.93;73.85
77112;BME280;66064;50.226;14.344;2023-07-20T00:21:10;99005.53;;;17.83;73.29
77112;BME280;66064;50.226;14.344;2023-07-20T00:23:37;99005.84;;;17.71;73.32
77112;BME280;66064;50.226;14.344;2023-07-20T00:26:03;99009.56;;;17.67;72.70
77112;BME280;66064;50.226;14.344;2023-07-20T00:28:29;99015.84;;;17.67;73.43
77112;BME280;66064;50.226;14.344;2023-07-20T00:30:55;99009.53;;;17.68;73.12
77112;BME280;66064;50.226;14.344;2023-07-20T00:33:22;99005.91;;;17.69;73.40
77112;BME280;66064;50.226;14.344;2023-07-20T00:35:48;98999.66;;;17.69;74.67
77112;BME280;66064;50.226;14.344;2023-07-20T00:38:14;99005.84;;;17.71;74.19
77112;BME280;66064;50.226;14.344;2023-07-20T00:40:40;98988.13;;;17.64;74.38
77112;BME280;66064;50.226;14.344;2023-07-20T00:43:08;99002.38;;;17.67;73.96
77112;BME280;66064;50.226;14.344;2023-07-20T00:45:34;99014.00;;;17.69;75.37
77112;BME280;66064;50.226;14.344;2023-07-20T00:48:04;99009.66;;;17.64;75.27
77112;BME280;66064;50.226;14.344;2023-07-20T00:50:31;98990.47;;;17.42;76.33
77112;BME280;66064;50.226;14.344;2023-07-20T00:52:58;99005.09;;;17.32;76.66
77112;BME280;66064;50.226;14.344;2023-07-20T00:55:24;99017.78;;;17.25;76.72
77112;BME280;66064;50.226;14.344;2023-07-20T00:57:51;99007.28;;;17.16;76.82
77112;BME280;66064;50.226;14.344;2023-07-20T01:00:17;99012.72;;;17.13;78.46
77112;BME280;66064;50.226;14.344;2023-07-20T01:02:44;99025.34;;;17.09;78.64
77112;BME280;66064;50.226;14.344;2023-07-20T01:05:10;99028.84;;;17.13;78.64
77112;BME280;66064;50.226;14.344;2023-07-20T01:07:46;99025.31;;;17.11;78.70
77112;BME280;66064;50.226;14.344;2023-07-20T01:10:33;99023.59;;;17.08;78.93
77112;BME280;66064;50.226;14.344;2023-07-20T01:13:03;99020.16;;;17.03;78.76
77112;BME280;66064;50.226;14.344;2023-07-20T01:15:33;99007.88;;;16.92;78.77
77112;BME280;66064;50.226;14.344;2023-07-20T01:17:59;99026.59;;;16.95;78.97
77112;BME280;66064;50.226;14.344;2023-07-20T01:20:28;99026.59;;;16.95;78.83
77112;BME280;66064;50.226;14.344;2023-07-20T01:31:46;99031.00;;;16.99;78.40
77112;BME280;66064;50.226;14.344;2023-07-20T01:34:18;99043.50;;;17.01;78.46
77112;BME280;66064;50.226;14.344;2023-07-20T01:36:46;99027.31;;;17.03;78.77
77112;BME280;66064;50.226;14.344;2023-07-20T01:39:13;99029.16;;;17.01;77.05
77112;BME280;66064;50.226;14.344;2023-07-20T01:41:43;99032.69;;;17.03;77.35
77112;BME280;66064;50.226;14.344;2023-07-20T01:44:09;99041.69;;;17.02;78.19
77112;BME280;66064;50.226;14.344;2023-07-20T01:46:35;99039.97;;;16.98;79.41
77112;BME280;66064;50.226;14.344;2023-07-20T01:49:02;99031.03;;;16.97;79.92
77112;BME280;66064;50.226;14.344;2023-07-20T01:51:28;99039.44;;;16.84;80.08
77112;BME280;66064;50.226;14.344;2023-07-20T01:53:54;99041.56;;;16.69;80.69
77112;BME280;66064;50.226;14.344;2023-07-20T01:56:20;99034.44;;;16.67;80.54
77112;BME280;66064;50.226;14.344;2023-07-20T01:58:46;99030.81;;;16.69;80.59
77112;BME280;66064;50.226;14.344;2023-07-20T02:01:12;99035.16;;;16.73;79.83
77112;BME280;66064;50.226;14.344;2023-07-20T02:03:38;99033.53;;;16.68;79.80
77112;BME280;66064;50.226;14.344;2023-07-20T02:06:04;99030.09;;;16.58;80.06
77112;BME280;66064;50.226;14.344;2023-07-20T02:08:30;99035.59;;;16.54;79.27
77112;BME280;66064;50.226;14.344;2023-07-20T02:10:56;99030.34;;;16.48;79.39
77112;BME280;66064;50.226;14.344;2023-07-20T02:13:22;99027.00;;;16.38;79.54
77112;BME280;66064;50.226;14.344;2023-07-20T02:15:48;99032.44;;;16.35;80.70
77112;BME280;66064;50.226;14.344;2023-07-20T02:18:15;99032.63;;;16.24;80.57
77112;BME280;66064;50.226;14.344;2023-07-20T02:20:41;99032.06;;;16.08;81.53
77112;BME280;66064;50.226;14.344;2023-07-20T02:23:08;99037.34;;;16.13;81.76
77112;BME280;66064;50.226;14.344;2023-07-20T02:25:34;99034.63;;;16.15;81.27
77112;BME280;66064;50.226;14.344;2023-07-20T02:28:00;99044.44;;;16.17;81.56
77112;BME280;66064;50.226;14.344;2023-07-20T02:30:26;99038.13;;;16.20;80.81
77112;BME280;66064;50.226;14.344;2023-07-20T02:32:53;99043.34;;;16.26;80.54
77112;BME280;66064;50.226;14.344;2023-07-20T02:35:19;99037.78;;;16.35;78.67
77112;BME280;66064;50.226;14.344;2023-07-20T02:37:45;99033.38;;;16.32;79.61
77112;BME280;66064;50.226;14.344;2023-07-20T02:40:11;99048.47;;;16.38;79.60
77112;BME280;66064;50.226;14.344;2023-07-20T02:42:37;99036.00;;;16.35;80.28
77112;BME280;66064;50.226;14.344;2023-07-20T02:45:03;99043.25;;;16.30;82.18
77112;BME280;66064;50.226;14.344;2023-07-20T02:47:30;99052.19;;;16.31;83.20
77112;BME280;66064;50.226;14.344;2023-07-20T02:49:56;99041.84;;;16.13;83.39
77112;BME280;66064;50.226;14.344;2023-07-20T02:52:23;99055.22;;;16.14;84.03
77112;BME280;66064;50.226;14.344;2023-07-20T02:54:50;99053.41;;;16.16;84.03
77112;BME280;66064;50.226;14.344;2023-07-20T02:57:16;99055.34;;;16.08;84.09
77112;BME280;66064;50.226;14.344;2023-07-20T02:59:42;99050.09;;;16.03;84.15
77112;BME280;66064;50.226;14.344;2023-07-20T03:02:08;99058.09;;;16.06;84.45
77112;BME280;66064;50.226;14.344;2023-07-20T03:04:37;99059.00;;;16.05;83.38
77112;BME280;66064;50.226;14.344;2023-07-20T03:07:06;99051.91;;;16.01;82.89
77112;BME280;66064;50.226;14.344;2023-07-20T03:09:33;99054.66;;;15.98;82.84
77112;BME280;66064;50.226;14.344;2023-07-20T03:11:59;99051.25;;;15.90;82.28
77112;BME280;66064;50.226;14.344;2023-07-20T03:14:25;99055.75;;;15.88;83.51
77112;BME280;66064;50.226;14.344;2023-07-20T03:16:51;99067.41;;;15.87;83.33
77112;BME280;66064;50.226;14.344;2023-07-20T03:19:17;99062.19;;;15.78;83.65
77112;BME280;66064;50.226;14.344;2023-07-20T03:21:43;99071.16;;;15.75;84.13
77112;BME280;66064;50.226;14.344;2023-07-20T03:24:09;99070.22;;;15.80;84.09
77112;BME280;66064;50.226;14.344;2023-07-20T03:26:36;99072.88;;;15.81;83.87
77112;BME280;66064;50.226;14.344;2023-07-20T03:29:03;99072.88;;;15.81;83.04
77112;BME280;66064;50.226;14.344;2023-07-20T03:31:29;99077.34;;;15.81;83.53
77112;BME280;66064;50.226;14.344;2023-07-20T03:33:55;99077.41;;;15.78;83.66
77112;BME280;66064;50.226;14.344;2023-07-20T03:36:21;99079.09;;;15.83;82.99
77112;BME280;66064;50.226;14.344;2023-07-20T03:38:47;99074.69;;;15.79;83.79
77112;BME280;66064;50.226;14.344;2023-07-20T03:41:14;99081.59;;;15.92;83.16
77112;BME280;66064;50.226;14.344;2023-07-20T03:43:41;99072.59;;;15.95;82.90
77112;BME280;66064;50.226;14.344;2023-07-20T03:46:08;99075.94;;;16.07;83.05
77112;BME280;66064;50.226;14.344;2023-07-20T03:48:34;99076.13;;;15.98;84.26
77112;BME280;66064;50.226;14.344;2023-07-20T03:51:00;99059.91;;;16.04;84.17
77112;BME280;66064;50.226;14.344;2023-07-20T03:53:26;99066.03;;;16.09;84.02
77112;BME280;66064;50.226;14.344;2023-07-20T03:55:53;99076.63;;;16.19;83.41
77112;BME280;66064;50.226;14.344;2023-07-20T03:58:19;99065.03;;;16.17;83.68
77112;BME280;66064;50.226;14.344;2023-07-20T04:00:46;99072.00;;;16.25;82.73
77112;BME280;66064;50.226;14.344;2023-07-20T04:03:13;99082.59;;;16.33;82.49
77112;BME280;66064;50.226;14.344;2023-07-20T04:05:40;99070.03;;;16.35;83.41
77112;BME280;66064;50.226;14.344;2023-07-20T04:08:07;99078.63;;;16.52;82.52
77112;BME280;66064;50.226;14.344;2023-07-20T04:10:33;99081.66;;;16.77;81.81
77112;BME280;66064;50.226;14.344;2023-07-20T04:13:00;99069.31;;;17.07;82.09
77112;BME280;66064;50.226;14.344;2023-07-20T04:15:27;99068.75;;;17.31;80.31
77112;BME280;66064;50.226;14.344;2023-07-20T04:17:52;99075.25;;;17.21;79.07
77112;BME280;66064;50.226;14.344;2023-07-20T04:20:19;99083.00;;;17.35;79.67
77112;BME280;66064;50.226;14.344;2023-07-20T04:22:44;99085.34;;;17.48;79.92
77112;BME280;66064;50.226;14.344;2023-07-20T04:25:10;99094.91;;;17.60;79.54
77112;BME280;66064;50.226;14.344;2023-07-20T04:27:36;99097.44;;;17.68;79.51
77112;BME280;66064;50.226;14.344;2023-07-20T04:30:03;99106.22;;;17.74;79.56
77112;BME280;66064;50.226;14.344;2023-07-20T04:32:29;99093.31;;;17.87;78.82
77112;BME280;66064;50.226;14.344;2023-07-20T04:34:56;99094.22;;;18.20;77.45
77112;BME280;66064;50.226;14.344;2023-07-20T04:37:22;99089.06;;;18.43;76.17
77112;BME280;66064;50.226;14.344;2023-07-20T04:39:48;99098.00;;;18.76;75.08
77112;BME280;66064;50.226;14.344;2023-07-20T04:42:14;99107.78;;;18.80;73.47
77112;BME280;66064;50.226;14.344;2023-07-20T04:44:41;99102.72;;;18.68;72.44
77112;BME280;66064;50.226;14.344;2023-07-20T04:47:07;99094.94;;;18.59;72.65
77112;BME280;66064;50.226;14.344;2023-07-20T04:49:34;99097.28;;;18.39;72.68
77112;BME280;66064;50.226;14.344;2023-07-20T04:52:00;99092.59;;;18.45;72.27
77112;BME280;66064;50.226;14.344;2023-07-20T04:54:28;99091.00;;;18.38;71.90
77112;BME280;66064;50.226;14.344;2023-07-20T04:56:54;99099.69;;;18.80;71.52
77112;BME280;66064;50.226;14.344;2023-07-20T04:59:20;99101.47;;;18.81;71.83
77112;BME280;66064;50.226;14.344;2023-07-20T05:01:46;99107.34;;;18.94;71.47
77112;BME280;66064;50.226;14.344;2023-07-20T05:04:12;99094.41;;;19.05;70.26
77112;BME280;66064;50.226;14.344;2023-07-20T05:06:38;99090.69;;;19.37;69.71
77112;BME280;66064;50.226;14.344;2023-07-20T05:09:05;99095.38;;;20.61;66.46
77112;BME280;66064;50.226;14.344;2023-07-20T05:11:33;99102.50;;;21.76;61.90
77112;BME280;66064;50.226;14.344;2023-07-20T05:14:00;99099.44;;;22.46;58.73
77112;BME280;66064;50.226;14.344;2023-07-20T05:16:25;99090.66;;;22.59;57.30
77112;BME280;66064;50.226;14.344;2023-07-20T05:18:52;99092.31;;;22.43;57.39
77112;BME280;66064;50.226;14.344;2023-07-20T05:21:17;99091.34;;;22.05;58.07
77112;BME280;66064;50.226;14.344;2023-07-20T05:23:44;99087.34;;;21.72;58.76
77112;BME280;66064;50.226;14.344;2023-07-20T05:26:10;99092.63;;;21.75;60.22
77112;BME280;66064;50.226;14.344;2023-07-20T05:28:37;99092.09;;;21.87;60.91
77112;BME280;66064;50.226;14.344;2023-07-20T05:31:03;99095.75;;;21.86;59.78
77112;BME280;66064;50.226;14.344;2023-07-20T05:33:29;99089.09;;;21.73;59.14
77112;BME280;66064;50.226;14.344;2023-07-20T05:35:55;99089.03;;;22.16;57.92
77112;BME280;66064;50.226;14.344;2023-07-20T05:38:21;99096.19;;;23.53;57.03
77112;BME280;66064;50.226;14.344;2023-07-20T05:40:47;99081.50;;;24.61;53.52
77112;BME280;66064;50.226;14.344;2023-07-20T05:43:13;99087.72;;;25.44;49.90
77112;BME280;66064;50.226;14.344;2023-07-20T05:45:43;99091.09;;;26.25;47.49
77112;BME280;66064;50.226;14.344;2023-07-20T05:48:10;99089.03;;;25.99;46.86
77112;BME280;66064;50.226;14.344;2023-07-20T05:50:43;99094.19;;;26.19;48.23
77112;BME280;66064;50.226;14.344;2023-07-20T05:53:09;99091.50;;;27.20;45.88
77112;BME280;66064;50.226;14.344;2023-07-20T05:55:35;99075.16;;;28.40;41.29
77112;BME280;66064;50.226;14.344;2023-07-20T05:58:01;99081.53;;;29.04;40.65
77112;BME280;66064;50.226;14.344;2023-07-20T06:00:29;99082.19;;;29.57;39.44
77112;BME280;66064;50.226;14.344;2023-07-20T06:02:55;99090.75;;;29.03;38.59
77112;BME280;66064;50.226;14.344;2023-07-20T06:05:22;99091.59;;;28.78;40.84
77112;BME280;66064;50.226;14.344;2023-07-20T06:07:50;99096.38;;;28.24;41.47
77112;BME280;66064;50.226;14.344;2023-07-20T06:10:16;99097.22;;;27.30;40.96
77112;BME280;66064;50.226;14.344;2023-07-20T06:12:42;99101.47;;;25.89;44.37
77112;BME280;66064;50.226;14.344;2023-07-20T06:15:28;99107.22;;;25.68;46.00
77112;BME280;66064;50.226;14.344;2023-07-20T06:17:55;99096.66;;;24.99;49.61
77112;BME280;66064;50.226;14.344;2023-07-20T06:20:23;99110.63;;;27.06;43.43
77112;BME280;66064;50.226;14.344;2023-07-20T06:22:50;99090.44;;;29.81;38.93
77112;BME280;66064;50.226;14.344;2023-07-20T06:25:16;99098.94;;;29.65;37.94
77112;BME280;66064;50.226;14.344;2023-07-20T06:27:42;99100.50;;;28.82;39.21
77112;BME280;66064;50.226;14.344;2023-07-20T06:30:09;99103.19;;;29.33;39.61
77112;BME280;66064;50.226;14.344;2023-07-20T06:32:36;99095.94;;;30.05;37.70
77112;BME280;66064;50.226;14.344;2023-07-20T06:35:02;99098.34;;;30.44;34.66
77112;BME280;66064;50.226;14.344;2023-07-20T06:37:28;99101.56;;;29.90;35.70
77112;BME280;66064;50.226;14.344;2023-07-20T06:39:54;99100.59;;;29.91;37.03
77112;BME280;66064;50.226;14.344;2023-07-20T06:42:20;99093.84;;;29.84;34.72
77112;BME280;66064;50.226;14.344;2023-07-20T06:44:46;99092.59;;;29.65;35.40
77112;BME280;66064;50.226;14.344;2023-07-20T06:47:12;99092.88;;;31.24;34.57
77112;BME280;66064;50.226;14.344;2023-07-20T06:49:38;99089.03;;;32.77;31.78
77112;BME280;66064;50.226;14.344;2023-07-20T06:52:04;99086.47;;;33.95;28.86
77112;BME280;66064;50.226;14.344;2023-07-20T06:54:30;99092.44;;;34.00;30.10
77112;BME280;66064;50.226;14.344;2023-07-20T06:56:56;99098.69;;;33.43;29.80
77112;BME280;66064;50.226;14.344;2023-07-20T06:59:22;99093.59;;;31.37;30.94
77112;BME280;66064;50.226;14.344;2023-07-20T07:01:50;99084.53;;;31.14;32.96
77112;BME280;66064;50.226;14.344;2023-07-20T07:04:16;99086.41;;;31.90;31.71
77112;BME280;66064;50.226;14.344;2023-07-20T07:06:42;99098.44;;;30.32;33.97
77112;BME280;66064;50.226;14.344;2023-07-20T07:09:08;99100.19;;;30.09;35.86
77112;BME280;66064;50.226;14.344;2023-07-20T07:11:34;99097.94;;;28.66;36.78
77112;BME280;66064;50.226;14.344;2023-07-20T07:14:00;99103.13;;;28.96;38.24
77112;BME280;66064;50.226;14.344;2023-07-20T07:16:26;99099.31;;;30.08;35.77
77112;BME280;66064;50.226;14.344;2023-07-20T07:18:52;99108.47;;;29.96;36.83
77112;BME280;66064;50.226;14.344;2023-07-20T07:21:18;99112.13;;;29.60;35.53
77112;BME280;66064;50.226;14.344;2023-07-20T07:23:45;99110.72;;;31.07;34.17
77112;BME280;66064;50.226;14.344;2023-07-20T07:26:11;99101.78;;;31.16;33.94
77112;BME280;66064;50.226;14.344;2023-07-20T07:28:37;99107.94;;;30.85;32.49
77112;BME280;66064;50.226;14.344;2023-07-20T07:31:06;99103.97;;;29.71;35.39
77112;BME280;66064;50.226;14.344;2023-07-20T07:33:33;99118.72;;;29.57;36.59
77112;BME280;66064;50.226;14.344;2023-07-20T07:35:59;99108.28;;;28.88;37.90
77112;BME280;66064;50.226;14.344;2023-07-20T07:38:25;99099.81;;;28.66;38.12
77112;BME280;66064;50.226;14.344;2023-07-20T07:40:51;99106.72;;;28.71;37.29
77112;BME280;66064;50.226;14.344;2023-07-20T07:43:16;99117.66;;;28.59;39.17
77112;BME280;66064;50.226;14.344;2023-07-20T07:45:43;99113.38;;;28.15;40.57
77112;BME280;66064;50.226;14.344;2023-07-20T07:48:09;99119.44;;;27.93;40.97
77112;BME280;66064;50.226;14.344;2023-07-20T07:50:37;99117.72;;;27.37;40.71
77112;BME280;66064;50.226;14.344;2023-07-20T07:53:04;99129.47;;;26.22;43.48
77112;BME280;66064;50.226;14.344;2023-07-20T07:55:30;99133.75;;;27.00;41.22
77112;BME280;66064;50.226;14.344;2023-07-20T07:57:55;99138.44;;;26.24;42.62
77112;BME280;66064;50.226;14.344;2023-07-20T08:00:22;99134.22;;;27.35;42.17
77112;BME280;66064;50.226;14.344;2023-07-20T08:02:50;99137.66;;;28.07;40.15
77112;BME280;66064;50.226;14.344;2023-07-20T08:05:16;99128.25;;;27.29;40.00
77112;BME280;66064;50.226;14.344;2023-07-20T08:07:42;99120.56;;;28.82;39.20
77112;BME280;66064;50.226;14.344;2023-07-20T08:10:09;99109.34;;;32.12;32.42
77112;BME280;66064;50.226;14.344;2023-07-20T08:12:35;99114.28;;;34.81;28.18
77112;BME280;66064;50.226;14.344;2023-07-20T08:15:02;99114.13;;;34.44;27.37
77112;BME280;66064;50.226;14.344;2023-07-20T08:17:28;99113.50;;;34.11;26.75
77112;BME280;66064;50.226;14.344;2023-07-20T08:19:54;99114.69;;;34.09;27.12
77112;BME280;66064;50.226;14.344;2023-07-20T08:22:19;99112.13;;;37.36;23.86
77112;BME280;66064;50.226;14.344;2023-07-20T08:24:46;99109.47;;;38.02;22.43
77112;BME280;66064;50.226;14.344;2023-07-20T08:27:11;99111.00;;;38.47;21.97
77112;BME280;66064;50.226;14.344;2023-07-20T08:29:38;99111.22;;;38.03;22.86
77112;BME280;66064;50.226;14.344;2023-07-20T08:32:05;99123.91;;;35.60;25.17
77112;BME280;66064;50.226;14.344;2023-07-20T08:34:32;99105.69;;;34.45;27.56
77112;BME280;66064;50.226;14.344;2023-07-20T08:36:58;99113.28;;;33.74;28.62
77112;BME280;66064;50.226;14.344;2023-07-20T08:39:24;99126.63;;;33.69;28.46
77112;BME280;66064;50.226;14.344;2023-07-20T08:41:51;99123.69;;;34.01;28.63
77112;BME280;66064;50.226;14.344;2023-07-20T08:44:18;99125.06;;;33.15;29.80
77112;BME280;66064;50.226;14.344;2023-07-20T08:46:45;99125.81;;;31.91;31.51
77112;BME280;66064;50.226;14.344;2023-07-20T08:49:11;99129.28;;;30.11;33.41
77112;BME280;66064;50.226;14.344;2023-07-20T08:51:39;99126.69;;;28.86;35.89
77112;BME280;66064;50.226;14.344;2023-07-20T08:54:06;99133.97;;;28.47;37.84
77112;BME280;66064;50.226;14.344;2023-07-20T08:56:33;99124.66;;;28.37;39.08
77112;BME280;66064;50.226;14.344;2023-07-20T08:59:01;99120.00;;;28.25;37.19
77112;BME280;66064;50.226;14.344;2023-07-20T09:01:27;99117.81;;;28.30;39.12
77112;BME280;66064;50.226;14.344;2023-07-20T09:03:54;99112.88;;;27.96;38.23
77112;BME280;66064;50.226;14.344;2023-07-20T09:06:20;99115.84;;;28.19;37.35
77112;BME280;66064;50.226;14.344;2023-07-20T09:08:46;99113.69;;;28.37;38.47
77112;BME280;66064;50.226;14.344;2023-07-20T09:11:12;99108.66;;;30.30;33.66
77112;BME280;66064;50.226;14.344;2023-07-20T09:13:39;99102.25;;;31.21;31.19
77112;BME280;66064;50.226;14.344;2023-07-20T09:16:05;99098.22;;;32.45;30.82
77112;BME280;66064;50.226;14.344;2023-07-20T09:18:32;99099.28;;;34.73;26.82
77112;BME280;66064;50.226;14.344;2023-07-20T09:21:00;99089.72;;;34.39;26.33
77112;BME280;66064;50.226;14.344;2023-07-20T09:23:34;99090.44;;;33.53;26.81
77112;BME280;66064;50.226;14.344;2023-07-20T09:26:01;99103.72;;;32.45;29.07
77112;BME280;66064;50.226;14.344;2023-07-20T09:28:55;99098.75;;;31.19;29.49
77112;BME280;66064;50.226;14.344;2023-07-20T09:31:22;99095.84;;;30.52;31.29
77112;BME280;66064;50.226;14.344;2023-07-20T09:33:52;99094.59;;;29.86;33.61
77112;BME280;66064;50.226;14.344;2023-07-20T09:36:19;99104.53;;;29.14;33.22
77112;BME280;66064;50.226;14.344;2023-07-20T09:38:45;99095.31;;;28.39;35.54
77112;BME280;66064;50.226;14.344;2023-07-20T09:41:15;99114.84;;;27.94;36.96
77112;BME280;66064;50.226;14.344;2023-07-20T09:43:42;99109.75;;;27.05;37.11
77112;BME280;66064;50.226;14.344;2023-07-20T09:46:08;99117.16;;;27.03;38.83
77112;BME280;66064;50.226;14.344;2023-07-20T09:48:34;99111.66;;;26.75;38.10
77112;BME280;66064;50.226;14.344;2023-07-20T09:51:01;99108.31;;;26.41;39.29
77112;BME280;66064;50.226;14.344;2023-07-20T09:53:28;99117.94;;;25.71;40.46
77112;BME280;66064;50.226;14.344;2023-07-20T09:55:55;99120.44;;;26.06;41.92
77112;BME280;66064;50.226;14.344;2023-07-20T09:58:22;99117.56;;;26.23;39.91
77112;BME280;66064;50.226;14.344;2023-07-20T10:00:51;99116.44;;;26.71;40.81
77112;BME280;66064;50.226;14.344;2023-07-20T10:03:22;99119.94;;;26.59;40.10
77112;BME280;66064;50.226;14.344;2023-07-20T10:05:54;99124.28;;;26.47;41.36
77112;BME280;66064;50.226;14.344;2023-07-20T10:08:26;99122.28;;;26.65;40.39
77112;BME280;66064;50.226;14.344;2023-07-20T10:10:53;99114.75;;;26.55;40.92
77112;BME280;66064;50.226;14.344;2023-07-20T10:13:26;99122.59;;;26.75;40.66
77112;BME280;66064;50.226;14.344;2023-07-20T10:16:15;99128.59;;;26.22;41.08
77112;BME280;66064;50.226;14.344;2023-07-20T10:19:01;99118.06;;;27.45;38.67
77112;BME280;66064;50.226;14.344;2023-07-20T10:21:29;99116.56;;;28.61;36.97
77112;BME280;66064;50.226;14.344;2023-07-20T10:23:56;99112.72;;;28.64;35.35
77112;BME280;66064;50.226;14.344;2023-07-20T10:26:22;99101.25;;;29.58;33.51
77112;BME280;66064;50.226;14.344;2023-07-20T10:28:49;99108.44;;;30.09;33.00
77112;BME280;66064;50.226;14.344;2023-07-20T10:31:15;99108.19;;;30.12;34.23
77112;BME280;66064;50.226;14.344;2023-07-20T10:33:43;99107.13;;;29.41;33.63
77112;BME280;66064;50.226;14.344;2023-07-20T10:36:10;99120.50;;;29.46;32.72
77112;BME280;66064;50.226;14.344;2023-07-20T10:41:20;99111.13;;;31.14;30.64
77112;BME280;66064;50.226;14.344;2023-07-20T10:43:47;99108.19;;;30.82;31.21
77112;BME280;66064;50.226;14.344;2023-07-20T10:46:14;99106.69;;;30.67;30.43
77112;BME280;66064;50.226;14.344;2023-07-20T10:49:03;99092.78;;;32.55;28.03
77112;BME280;66064;50.226;14.344;2023-07-20T10:51:30;99085.22;;;34.57;25.71
77112;BME280;66064;50.226;14.344;2023-07-20T10:54:08;99095.78;;;34.71;26.47
77112;BME280;66064;50.226;14.344;2023-07-20T10:56:34;99095.47;;;34.94;24.76
77112;BME280;66064;50.226;14.344;2023-07-20T10:59:00;99095.88;;;36.00;22.82
77112;BME280;66064;50.226;14.344;2023-07-20T11:01:35;99085.03;;;35.62;23.62
77112;BME280;66064;50.226;14.344;2023-07-20T11:04:08;99089.38;;;36.09;23.32
77112;BME280;66064;50.226;14.344;2023-07-20T11:06:34;99074.97;;;36.59;22.46
77112;BME280;66064;50.226;14.344;2023-07-20T11:09:05;99073.81;;;36.26;21.16
77112;BME280;66064;50.226;14.344;2023-07-20T11:11:50;99075.69;;;36.61;20.91
77112;BME280;66064;50.226;14.344;2023-07-20T11:14:23;99078.63;;;34.68;22.56
77112;BME280;66064;50.226;14.344;2023-07-20T11:16:51;99086.25;;;33.68;26.72
77112;BME280;66064;50.226;14.344;2023-07-20T11:19:24;99081.97;;;34.14;25.28
77112;BME280;66064;50.226;14.344;2023-07-20T11:21:53;99076.28;;;33.36;26.18
77112;BME280;66064;50.226;14.344;2023-07-20T11:24:20;99071.47;;;32.57;27.38
77112;BME280;66064;50.226;14.344;2023-07-20T11:26:51;99067.47;;;33.43;26.56
77112;BME280;66064;50.226;14.344;2023-07-20T11:29:20;99067.00;;;34.64;25.04
77112;BME280;66064;50.226;14.344;2023-07-20T11:31:47;99061.50;;;35.48;24.51
77112;BME280;66064;50.226;14.344;2023-07-20T11:34:15;99066.41;;;34.90;25.00
77112;BME280;66064;50.226;14.344;2023-07-20T11:36:43;99068.84;;;32.03;26.74
77112;BME280;66064;50.226;14.344;2023-07-20T11:39:14;99073.16;;;30.50;29.56
77112;BME280;66064;50.226;14.344;2023-07-20T11:41:47;99063.72;;;29.22;30.95
77112;BME280;66064;50.226;14.344;2023-07-20T11:44:18;99068.97;;;29.25;30.98
77112;BME280;66064;50.226;14.344;2023-07-20T11:46:45;99067.16;;;29.13;31.38
77112;BME280;66064;50.226;14.344;2023-07-20T11:49:11;99068.56;;;29.68;31.11
77112;BME280;66064;50.226;14.344;2023-07-20T11:51:39;99050.63;;;29.75;30.78
77112;BME280;66064;50.226;14.344;2023-07-20T11:54:07;99053.97;;;30.73;30.23
77112;BME280;66064;50.226;14.344;2023-07-20T11:56:34;99050.00;;;31.44;28.90
77112;BME280;66064;50.226;14.344;2023-07-20T11:59:00;99050.22;;;30.63;28.03
77112;BME280;66064;50.226;14.344;2023-07-20T12:01:29;99039.03;;;28.73;30.34
77112;BME280;66064;50.226;14.344;2023-07-20T12:04:02;99048.41;;;29.07;32.43
77112;BME280;66064;50.226;14.344;2023-07-20T12:06:29;99048.13;;;28.36;32.94
77112;BME280;66064;50.226;14.344;2023-07-20T12:08:59;99044.56;;;27.81;33.99
77112;BME280;66064;50.226;14.344;2023-07-20T12:11:36;99047.03;;;27.99;34.94
77112;BME280;66064;50.226;14.344;2023-07-20T12:14:03;99046.41;;;28.08;33.58
77112;BME280;66064;50.226;14.344;2023-07-20T12:16:30;99051.19;;;27.92;34.18
77112;BME280;66064;50.226;14.344;2023-07-20T12:19:07;99059.75;;;28.12;34.54
77112;BME280;66064;50.226;14.344;2023-07-20T12:21:38;99053.06;;;28.04;35.35
77112;BME280;66064;50.226;14.344;2023-07-20T12:24:06;99044.81;;;28.31;34.14
77112;BME280;66064;50.226;14.344;2023-07-20T12:26:33;99041.66;;;28.49;33.59
77112;BME280;66064;50.226;14.344;2023-07-20T12:29:00;99034.97;;;28.28;31.80
77112;BME280;66064;50.226;14.344;2023-07-20T12:31:27;99022.50;;;28.24;32.54
77112;BME280;66064;50.226;14.344;2023-07-20T12:33:54;99032.84;;;29.08;32.16
77112;BME280;66064;50.226;14.344;2023-07-20T12:36:23;99031.16;;;28.56;33.38
77112;BME280;66064;50.226;14.344;2023-07-20T12:38:49;99032.56;;;29.00;32.57
77112;BME280;66064;50.226;14.344;2023-07-20T12:41:15;99037.25;;;28.60;31.66
77112;BME280;66064;50.226;14.344;2023-07-20T12:43:42;99033.09;;;28.41;33.10
77112;BME280;66064;50.226;14.344;2023-07-20T12:46:10;99033.31;;;28.26;33.36
77112;BME280;66064;50.226;14.344;2023-07-20T12:48:37;99027.63;;;28.29;32.36
77112;BME280;66064;50.226;14.344;2023-07-20T12:51:05;99034.47;;;27.69;32.02
77112;BME280;66064;50.226;14.344;2023-07-20T12:53:32;99028.09;;;28.35;33.84
77112;BME280;66064;50.226;14.344;2023-07-20T12:55:59;99044.25;;;27.73;31.43
77112;BME280;66064;50.226;14.344;2023-07-20T12:58:25;99046.25;;;27.97;32.44
77112;BME280;66064;50.226;14.344;2023-07-20T13:00:51;99028.97;;;28.23;32.08
77112;BME280;66064;50.226;14.344;2023-07-20T13:03:17;99028.75;;;28.89;31.52